createdAt,value
2022-09-02T00:02:02.511Z,2.10
2022-09-02T00:04:34.708Z,1.90
2022-09-02T00:07:06.010Z,1.90
2022-09-02T00:09:38.802Z,2.60
2022-09-02T00:12:10.726Z,2.70
2022-09-02T00:14:40.665Z,2.10
2022-09-02T00:17:09.163Z,2.10
2022-09-02T00:19:39.463Z,2.30
2022-09-02T00:22:08.223Z,2.40
2022-09-02T00:24:40.479Z,2.40
2022-09-02T00:27:09.872Z,2.50
2022-09-02T00:29:41.741Z,2.50
2022-09-02T00:32:11.179Z,2.20
2022-09-02T00:34:40.667Z,2.20
2022-09-02T00:37:10.983Z,2.10
2022-09-02T00:39:41.698Z,1.80
2022-09-02T00:42:12.332Z,1.70
2022-09-02T00:44:43.479Z,1.70
2022-09-02T00:47:16.437Z,2.20
2022-09-02T00:49:53.975Z,2.50
2022-09-02T00:52:47.837Z,2.10
2022-09-02T00:55:22.843Z,2.20
2022-09-02T00:58:18.391Z,2.00
2022-09-02T01:00:53.270Z,2.20
2022-09-02T01:03:28.357Z,2.70
2022-09-02T01:06:00.180Z,2.60
2022-09-02T01:08:34.840Z,2.80
2022-09-02T01:11:06.762Z,2.90
2022-09-02T01:13:44.572Z,2.70
2022-09-02T01:16:30.283Z,3.30
2022-09-02T01:21:33.611Z,3.70
2022-09-02T01:24:06.192Z,2.80
2022-09-02T01:26:36.917Z,2.90
2022-09-02T01:29:07.241Z,2.50
2022-09-02T01:31:37.940Z,2.30
2022-09-02T01:34:07.791Z,2.30
2022-09-02T01:36:42.583Z,2.50
2022-09-02T01:39:14.224Z,2.30
2022-09-02T01:41:45.002Z,2.10
2022-09-02T01:44:18.211Z,1.90
2022-09-02T01:46:52.916Z,2.20
2022-09-02T01:49:23.573Z,2.30
2022-09-02T01:51:56.289Z,2.20
2022-09-02T01:54:26.067Z,1.60
2022-09-02T01:56:56.391Z,1.80
2022-09-02T01:59:26.219Z,1.70
2022-09-02T02:01:55.880Z,1.80
2022-09-02T02:04:27.292Z,1.90
2022-09-02T02:06:58.513Z,2.00
2022-09-02T02:09:28.693Z,2.30
2022-09-02T02:11:58.433Z,2.00
2022-09-02T02:14:31.728Z,1.90
2022-09-02T02:17:02.272Z,2.10
2022-09-02T02:19:32.592Z,1.90
2022-09-02T02:22:02.407Z,1.90
2022-09-02T02:24:31.872Z,1.90
2022-09-02T02:27:02.423Z,1.70
2022-09-02T02:29:32.043Z,1.70
2022-09-02T02:32:02.674Z,1.90
2022-09-02T02:34:32.149Z,2.30
2022-09-02T02:37:02.108Z,2.20
2022-09-02T02:39:30.850Z,2.20
2022-09-02T02:42:01.012Z,2.60
2022-09-02T02:44:33.373Z,1.90
2022-09-02T02:47:04.633Z,2.00
2022-09-02T02:49:44.167Z,2.30
2022-09-02T02:52:13.969Z,2.00
2022-09-02T02:54:44.398Z,3.20
2022-09-02T02:57:14.937Z,3.30
2022-09-02T02:59:45.152Z,3.70
2022-09-02T03:02:14.916Z,3.50
2022-09-02T03:04:44.472Z,3.40
2022-09-02T03:07:15.101Z,2.70
2022-09-02T03:09:45.444Z,2.90
2022-09-02T03:12:14.838Z,2.90
2022-09-02T03:14:46.293Z,3.10
2022-09-02T03:17:17.898Z,2.90
2022-09-02T03:19:48.977Z,2.90
2022-09-02T03:22:20.232Z,2.40
2022-09-02T03:24:50.548Z,2.50
2022-09-02T03:27:20.071Z,2.20
2022-09-02T03:29:50.701Z,2.50
2022-09-02T03:32:20.400Z,2.80
2022-09-02T03:34:50.321Z,2.50
2022-09-02T03:37:22.102Z,2.30
2022-09-02T03:39:51.381Z,2.00
2022-09-02T03:42:22.560Z,2.30
2022-09-02T03:44:52.954Z,2.20
2022-09-02T03:47:25.883Z,2.00
2022-09-02T03:49:55.794Z,2.20
2022-09-02T03:52:27.099Z,2.30
2022-09-02T03:54:58.661Z,2.20
2022-09-02T03:57:30.223Z,2.70
2022-09-02T04:00:02.557Z,2.50
2022-09-02T04:02:34.175Z,2.30
2022-09-02T04:05:05.168Z,2.00
2022-09-02T04:07:46.147Z,2.20
2022-09-02T04:10:17.542Z,2.60
2022-09-02T04:12:46.890Z,3.60
2022-09-02T04:15:16.342Z,2.80
2022-09-02T04:17:45.711Z,2.50
2022-09-02T04:20:18.697Z,2.70
2022-09-02T04:22:49.119Z,2.70
2022-09-02T04:25:18.946Z,2.90
2022-09-02T04:30:25.662Z,3.00
2022-09-02T04:32:56.467Z,2.60
2022-09-02T04:35:25.571Z,2.60
2022-09-02T04:37:55.078Z,2.50
2022-09-02T04:40:24.510Z,2.60
2022-09-02T04:42:55.254Z,2.90
2022-09-02T04:45:29.127Z,2.90
2022-09-02T04:47:58.895Z,2.90
2022-09-02T04:50:28.532Z,3.10
2022-09-02T04:53:00.388Z,3.00
2022-09-02T04:55:29.132Z,2.80
2022-09-02T04:57:59.239Z,2.60
2022-09-02T05:00:28.405Z,2.70
2022-09-02T05:02:57.337Z,3.10
2022-09-02T05:05:27.656Z,3.30
2022-09-02T05:07:58.767Z,2.50
2022-09-02T05:10:29.304Z,2.40
2022-09-02T05:12:59.878Z,2.30
2022-09-02T05:15:29.066Z,2.40
2022-09-02T05:17:57.770Z,2.50
2022-09-02T05:20:28.742Z,2.20
2022-09-02T05:22:58.026Z,2.40
2022-09-02T05:25:26.612Z,2.20
2022-09-02T05:27:56.055Z,2.40
2022-09-02T05:30:24.776Z,2.40
2022-09-02T05:32:53.621Z,2.40
2022-09-02T05:35:22.405Z,2.30
2022-09-02T05:37:51.988Z,1.90
2022-09-02T05:40:22.753Z,2.10
2022-09-02T05:42:51.992Z,2.10
2022-09-02T05:45:21.068Z,2.30
2022-09-02T05:47:50.582Z,2.40
2022-09-02T05:50:20.728Z,2.20
2022-09-02T05:52:51.645Z,2.30
2022-09-02T05:55:20.869Z,2.00
2022-09-02T05:57:49.432Z,2.10
2022-09-02T06:00:18.478Z,2.20
2022-09-02T06:02:55.854Z,2.20
2022-09-02T06:05:36.086Z,1.70
2022-09-02T06:08:12.672Z,2.00
2022-09-02T06:10:43.436Z,2.60
2022-09-02T06:13:16.260Z,1.80
2022-09-02T06:15:45.430Z,1.80
2022-09-02T06:18:15.396Z,1.70
2022-09-02T06:20:47.952Z,2.20
2022-09-02T06:23:18.081Z,1.80
2022-09-02T06:25:49.374Z,1.80
2022-09-02T06:28:18.835Z,1.70
2022-09-02T06:30:51.443Z,2.10
2022-09-02T06:33:24.271Z,1.80
2022-09-02T06:35:53.079Z,1.70
2022-09-02T06:38:22.372Z,1.60
2022-09-02T06:40:54.046Z,1.80
2022-09-02T06:43:28.942Z,1.70
2022-09-02T06:46:25.809Z,1.80
2022-09-02T06:48:56.433Z,1.50
2022-09-02T06:51:31.887Z,1.70
2022-09-02T06:54:02.715Z,1.40
2022-09-02T06:56:34.793Z,1.50
2022-09-02T06:59:06.309Z,1.50
2022-09-02T07:01:46.296Z,1.30
2022-09-02T07:04:37.291Z,1.60
2022-09-02T07:07:09.051Z,1.50
2022-09-02T07:09:45.602Z,1.40
2022-09-02T07:12:20.019Z,1.30
2022-09-02T07:14:54.775Z,1.40
2022-09-02T07:17:29.554Z,1.30
2022-09-02T07:20:04.783Z,1.40
2022-09-02T07:22:39.524Z,1.20
2022-09-02T07:25:11.318Z,1.20
2022-09-02T07:27:40.053Z,1.20
2022-09-02T07:30:10.504Z,1.10
2022-09-02T07:32:40.711Z,1.30
2022-09-02T07:35:10.463Z,1.40
2022-09-02T07:37:39.488Z,1.60
2022-09-02T07:40:11.915Z,1.20
2022-09-02T07:42:40.415Z,1.20
2022-09-02T07:45:11.390Z,1.10
2022-09-02T07:47:41.307Z,1.20
2022-09-02T07:50:17.209Z,1.00
2022-09-02T07:52:50.686Z,1.50
2022-09-02T07:55:19.579Z,1.20
2022-09-02T07:57:49.207Z,1.10
2022-09-02T08:00:20.567Z,1.00
2022-09-02T08:02:50.180Z,1.20
2022-09-02T08:05:24.345Z,0.80
2022-09-02T08:07:54.003Z,1.20
2022-09-02T08:10:28.719Z,0.70
2022-09-02T08:13:03.988Z,0.80
2022-09-02T08:15:36.549Z,0.60
2022-09-02T08:18:08.482Z,0.60
2022-09-02T08:20:42.536Z,0.70
2022-09-02T08:25:49.194Z,0.70
2022-09-02T08:28:18.814Z,0.60
2022-09-02T08:30:47.586Z,0.60
2022-09-02T08:33:17.418Z,0.70
2022-09-02T08:35:49.302Z,0.70
2022-09-02T08:38:18.288Z,0.60
2022-09-02T08:40:48.875Z,0.60
2022-09-02T08:43:42.365Z,0.70
2022-09-02T08:46:17.642Z,0.50
2022-09-02T08:49:01.802Z,0.70
2022-09-02T08:51:51.025Z,0.60
2022-09-02T08:54:43.592Z,0.60
2022-09-02T08:57:14.072Z,0.70
2022-09-02T08:59:44.823Z,0.70
2022-09-02T09:02:30.080Z,0.60
2022-09-02T09:05:19.702Z,0.50
2022-09-02T09:12:10.316Z,0.60
2022-09-02T09:15:01.945Z,0.80
2022-09-02T09:17:54.085Z,0.80
2022-09-02T09:20:28.708Z,0.60
2022-09-02T09:23:03.621Z,0.60
2022-09-02T09:25:33.362Z,0.60
2022-09-02T09:28:03.599Z,0.60
2022-09-02T09:30:32.971Z,0.50
2022-09-02T09:33:03.921Z,0.60
2022-09-02T09:35:50.594Z,0.60
2022-09-02T09:38:32.908Z,0.50
2022-09-02T09:41:31.726Z,0.50
2022-09-02T09:44:00.360Z,0.60
2022-09-02T09:46:32.508Z,0.80
2022-09-02T09:49:02.303Z,0.40
2022-09-02T09:51:30.880Z,0.40
2022-09-02T09:54:18.908Z,0.50
2022-09-02T09:56:48.649Z,0.40
2022-09-02T09:59:43.729Z,0.50
2022-09-02T10:02:25.838Z,0.40
2022-09-02T10:05:12.140Z,0.40
2022-09-02T10:07:46.252Z,0.50
2022-09-02T10:10:20.801Z,0.50
2022-09-02T10:12:54.069Z,0.50
2022-09-02T10:15:38.840Z,0.60
2022-09-02T10:18:35.975Z,0.40
2022-09-02T10:21:14.948Z,0.50
2022-09-02T10:24:17.986Z,0.60
2022-09-02T10:26:54.876Z,0.60
2022-09-02T10:29:55.044Z,0.40
2022-09-02T10:32:29.217Z,0.30
2022-09-02T10:35:06.609Z,0.40
2022-09-02T10:37:51.270Z,0.60
2022-09-02T10:40:35.753Z,0.50
2022-09-02T10:43:38.155Z,0.70
2022-09-02T10:46:13.096Z,0.50
2022-09-02T10:49:02.207Z,0.40
2022-09-02T10:51:41.592Z,0.50
2022-09-02T10:54:40.136Z,0.70
2022-09-02T10:57:20.645Z,0.50
2022-09-02T11:00:17.470Z,0.40
2022-09-02T11:03:23.256Z,0.50
2022-09-02T11:05:53.454Z,0.70
2022-09-02T11:08:40.565Z,0.50
2022-09-02T11:11:16.712Z,0.50
2022-09-02T11:13:56.936Z,0.30
2022-09-02T11:16:41.665Z,0.50
2022-09-02T11:19:22.954Z,0.50
2022-09-02T11:22:27.655Z,0.40
2022-09-02T11:25:23.021Z,0.40
2022-09-02T11:28:25.660Z,0.40
2022-09-02T11:31:13.972Z,0.30
2022-09-02T11:33:45.385Z,0.50
2022-09-02T11:36:14.281Z,0.40
2022-09-02T11:39:36.204Z,0.40
2022-09-02T11:42:29.834Z,0.40
2022-09-02T11:45:15.332Z,0.30
2022-09-02T11:48:24.906Z,0.60
2022-09-02T11:51:05.456Z,0.60
2022-09-02T11:53:42.181Z,0.80
2022-09-02T11:56:25.798Z,0.50
2022-09-02T11:58:54.496Z,0.40
2022-09-02T12:01:43.814Z,0.40
2022-09-02T12:07:08.761Z,0.40
2022-09-02T12:09:56.952Z,0.40
2022-09-02T12:12:37.588Z,0.40
2022-09-02T12:15:08.395Z,0.40
2022-09-02T12:17:39.901Z,1.60
2022-09-02T12:20:31.731Z,0.50
2022-09-02T12:23:00.591Z,0.60
2022-09-02T12:25:39.358Z,0.40
2022-09-02T12:28:30.807Z,0.40
2022-09-02T12:31:08.628Z,0.50
2022-09-02T12:33:41.957Z,0.50
2022-09-02T12:36:36.312Z,0.40
2022-09-02T12:39:23.269Z,0.50
2022-09-02T12:42:06.770Z,0.50
2022-09-02T12:44:45.723Z,1.20
2022-09-02T12:47:20.322Z,2.10
2022-09-02T12:50:07.515Z,0.40
2022-09-02T12:52:36.378Z,0.50
2022-09-02T12:55:26.485Z,0.70
2022-09-02T12:58:11.066Z,0.60
2022-09-02T13:00:59.136Z,0.40
2022-09-02T13:03:44.059Z,0.40
2022-09-02T13:06:36.723Z,0.50
2022-09-02T13:09:23.692Z,0.50
2022-09-02T13:12:21.436Z,0.80
2022-09-02T13:15:03.713Z,0.50
2022-09-02T13:18:01.967Z,0.80
2022-09-02T13:20:56.632Z,0.50
2022-09-02T13:23:43.355Z,0.50
2022-09-02T13:26:53.143Z,0.50
2022-09-02T13:29:52.220Z,0.50
2022-09-02T13:32:20.952Z,0.50
2022-09-02T13:34:53.136Z,0.70
2022-09-02T13:37:41.208Z,0.70
2022-09-02T13:40:22.332Z,1.50
2022-09-02T13:42:53.897Z,0.40
2022-09-02T13:45:26.601Z,0.50
2022-09-02T13:48:00.809Z,0.70
2022-09-02T13:50:32.162Z,9.50
2022-09-02T13:53:53.596Z,0.80
2022-09-02T13:55:56.167Z,0.50
2022-09-02T13:58:31.297Z,0.80
2022-09-02T14:01:27.972Z,0.40
2022-09-02T14:04:00.212Z,0.50
2022-09-02T14:06:33.795Z,0.80
2022-09-02T14:09:06.887Z,0.50
2022-09-02T14:11:42.536Z,0.50
2022-09-02T14:14:16.993Z,0.60
2022-09-02T14:16:46.048Z,0.40
2022-09-02T14:19:17.709Z,0.50
2022-09-02T14:21:56.935Z,0.40
2022-09-02T14:24:31.105Z,0.50
2022-09-02T14:27:00.930Z,0.70
2022-09-02T14:29:34.061Z,0.50
2022-09-02T14:32:22.719Z,0.70
2022-09-02T14:35:15.556Z,0.50
2022-09-02T14:37:53.773Z,0.60
2022-09-02T14:40:40.572Z,0.50
2022-09-02T14:43:14.547Z,0.60
2022-09-02T14:45:48.046Z,0.90
2022-09-02T14:48:24.174Z,0.50
2022-09-02T14:51:05.594Z,0.50
2022-09-02T14:53:37.880Z,0.60
2022-09-02T14:56:07.000Z,0.50
2022-09-02T14:58:35.413Z,0.60
2022-09-02T15:01:05.049Z,0.40
2022-09-02T15:03:39.099Z,0.40
2022-09-02T15:06:09.857Z,0.50
2022-09-02T15:08:40.428Z,0.70
2022-09-02T15:11:08.933Z,0.80
2022-09-02T15:13:37.432Z,1.00
2022-09-02T15:16:06.131Z,1.00
2022-09-02T15:18:34.633Z,0.90
2022-09-02T15:21:03.598Z,0.30
2022-09-02T15:23:36.081Z,0.50
2022-09-02T15:26:05.917Z,0.50
2022-09-02T15:28:35.178Z,0.50
2022-09-02T15:31:03.849Z,0.50
2022-09-02T15:33:32.540Z,0.40
2022-09-02T15:36:12.236Z,0.90
2022-09-02T15:38:41.602Z,0.40
2022-09-02T15:41:22.967Z,0.50
2022-09-02T15:43:54.450Z,0.60
2022-09-02T15:46:29.038Z,0.40
2022-09-02T15:49:02.801Z,0.60
2022-09-02T15:51:32.905Z,0.60
2022-09-02T15:54:04.342Z,0.40
2022-09-02T15:56:36.311Z,0.50
2022-09-02T15:59:13.070Z,0.70
2022-09-02T16:01:45.695Z,0.40
2022-09-02T16:04:15.995Z,0.50
2022-09-02T16:06:48.372Z,0.70
2022-09-02T16:09:19.052Z,0.70
2022-09-02T16:11:54.046Z,0.40
2022-09-02T16:14:24.801Z,0.60
2022-09-02T16:16:58.785Z,0.70
2022-09-02T16:19:30.388Z,0.80
2022-09-02T16:21:59.648Z,0.90
2022-09-02T16:24:28.649Z,0.80
2022-09-02T16:26:58.030Z,0.60
2022-09-02T16:29:28.473Z,0.50
2022-09-02T16:32:14.286Z,0.60
2022-09-02T16:34:47.097Z,0.50
2022-09-02T16:37:15.778Z,0.60
2022-09-02T16:39:44.246Z,0.60
2022-09-02T16:42:12.677Z,0.60
2022-09-02T16:44:42.455Z,0.50
2022-09-02T16:47:12.863Z,0.60
2022-09-02T16:49:42.860Z,0.80
2022-09-02T16:52:11.220Z,0.60
2022-09-02T16:54:40.986Z,0.60
2022-09-02T16:57:10.447Z,0.70
2022-09-02T16:59:38.797Z,0.80
2022-09-02T17:02:07.316Z,0.70
2022-09-02T17:04:35.726Z,11.80
2022-09-02T17:07:04.586Z,12.20
2022-09-02T17:09:32.955Z,9.00
2022-09-02T17:12:01.242Z,1.40
2022-09-02T17:14:29.609Z,0.90
2022-09-02T17:16:58.322Z,0.70
2022-09-02T17:19:32.051Z,0.60
2022-09-02T17:22:01.891Z,0.70
2022-09-02T17:24:32.218Z,0.90
2022-09-02T17:27:01.928Z,0.80
2022-09-02T17:32:21.423Z,0.80
2022-09-02T17:34:50.598Z,0.70
2022-09-02T17:37:20.348Z,0.70
2022-09-02T17:39:49.926Z,0.70
2022-09-02T17:42:20.366Z,0.90
2022-09-02T17:44:49.356Z,0.50
2022-09-02T17:47:22.938Z,1.00
2022-09-02T17:49:52.206Z,1.30
2022-09-02T17:52:24.845Z,1.00
2022-09-02T17:54:54.728Z,0.80
2022-09-02T17:57:24.667Z,1.20
2022-09-02T18:00:09.949Z,0.90
2022-09-02T18:02:55.453Z,0.70
2022-09-02T18:05:37.829Z,0.70
2022-09-02T18:08:13.226Z,0.70
2022-09-02T18:10:57.801Z,1.10
2022-09-02T18:13:41.692Z,1.20
2022-09-02T18:16:33.826Z,1.00
2022-09-02T18:19:14.177Z,0.80
2022-09-02T18:22:11.678Z,1.00
2022-09-02T18:24:51.565Z,1.10
2022-09-02T18:27:44.258Z,1.10
2022-09-02T18:30:18.865Z,1.00
2022-09-02T18:32:59.530Z,0.80
2022-09-02T18:35:51.867Z,1.00
2022-09-02T18:39:09.913Z,1.10
2022-09-02T18:41:44.699Z,0.90
2022-09-02T18:44:37.298Z,1.30
2022-09-02T18:47:23.899Z,1.60
2022-09-02T18:52:28.308Z,1.50
2022-09-02T18:55:16.904Z,1.30
2022-09-02T18:58:12.614Z,2.10
2022-09-02T19:00:51.212Z,1.70
2022-09-02T19:03:20.852Z,2.40
2022-09-02T19:05:49.825Z,1.30
2022-09-02T19:08:36.232Z,1.70
2022-09-02T19:11:12.418Z,1.30
2022-09-02T19:13:56.198Z,1.30
2022-09-02T19:16:33.951Z,1.50
2022-09-02T19:19:04.028Z,1.90
2022-09-02T19:21:40.917Z,2.00
2022-09-02T19:24:14.737Z,2.20
2022-09-02T19:26:45.107Z,1.90
2022-09-02T19:29:17.147Z,2.10
2022-09-02T19:31:48.265Z,2.40
2022-09-02T19:34:18.190Z,2.60
2022-09-02T19:36:50.491Z,2.90
2022-09-02T19:39:19.601Z,3.00
2022-09-02T19:41:49.423Z,4.20
2022-09-02T19:44:18.172Z,4.20
2022-09-02T19:49:41.410Z,4.50
2022-09-02T19:52:12.615Z,5.20
2022-09-02T19:54:42.108Z,5.70
2022-09-02T19:57:10.875Z,5.50
2022-09-02T19:59:39.552Z,7.20
2022-09-02T20:02:08.422Z,8.00
2022-09-02T20:04:37.344Z,9.70
2022-09-02T20:07:06.031Z,9.70
2022-09-02T20:09:34.614Z,10.00
2022-09-02T20:12:03.403Z,9.40
2022-09-02T20:14:34.842Z,8.00
2022-09-02T20:17:06.515Z,7.70
2022-09-02T20:19:35.403Z,6.20
2022-09-02T20:22:05.928Z,5.50
2022-09-02T20:24:35.319Z,6.40
2022-09-02T20:27:12.930Z,8.20
2022-09-02T20:30:02.854Z,6.60
2022-09-02T20:32:40.656Z,8.90
2022-09-02T20:35:24.459Z,9.50
2022-09-02T20:38:03.584Z,8.80
2022-09-02T20:40:46.384Z,9.40
2022-09-02T20:43:21.457Z,7.50
2022-09-02T20:46:28.257Z,9.00
2022-09-02T20:49:22.610Z,9.70
2022-09-02T20:52:03.502Z,9.90
2022-09-02T20:54:41.180Z,9.90
2022-09-02T20:57:25.851Z,9.10
2022-09-02T21:00:06.807Z,8.70
2022-09-02T21:02:57.417Z,8.50
2022-09-02T21:05:38.067Z,7.70
2022-09-02T21:08:23.028Z,7.80
2022-09-02T21:11:00.840Z,6.80
2022-09-02T21:13:49.538Z,7.50
2022-09-02T21:16:28.749Z,7.00
2022-09-02T21:19:08.798Z,6.90
2022-09-02T21:22:05.522Z,7.40
2022-09-02T21:24:57.282Z,6.00
2022-09-02T21:27:28.935Z,6.10
2022-09-02T21:30:02.128Z,6.60
2022-09-02T21:32:40.505Z,7.00
2022-09-02T21:35:36.355Z,7.50
2022-09-02T21:38:13.133Z,9.50
2022-09-02T21:40:51.436Z,9.10
2022-09-02T21:43:56.036Z,9.10
2022-09-02T21:47:10.128Z,8.60
2022-09-02T21:50:22.091Z,9.30
2022-09-02T21:53:01.351Z,7.90
2022-09-02T21:56:09.557Z,8.90
2022-09-02T21:59:10.749Z,10.40
2022-09-02T22:01:56.759Z,11.50
2022-09-02T22:04:44.337Z,9.80
2022-09-02T22:07:29.793Z,11.60
2022-09-02T22:10:20.209Z,7.00
2022-09-02T22:12:52.744Z,7.60
2022-09-02T22:15:35.789Z,8.70
2022-09-02T22:18:40.849Z,8.90
2022-09-02T22:21:48.642Z,9.10
2022-09-02T22:24:20.355Z,7.90
2022-09-02T22:27:06.973Z,6.40
2022-09-02T22:29:44.287Z,6.10
2022-09-02T22:32:20.714Z,6.50
2022-09-02T22:35:42.610Z,6.20
2022-09-02T22:38:28.746Z,7.20
2022-09-02T22:41:15.004Z,6.80
2022-09-02T22:43:55.269Z,5.60
2022-09-02T22:47:08.821Z,5.20
2022-09-02T22:50:16.911Z,5.40
2022-09-02T22:52:46.531Z,6.80
2022-09-02T22:55:50.989Z,7.30
2022-09-02T22:58:21.892Z,6.20
2022-09-02T23:01:18.376Z,5.90
2022-09-02T23:04:03.225Z,6.00
2022-09-02T23:06:34.293Z,4.90
2022-09-02T23:09:09.837Z,4.40
2022-09-02T23:11:41.736Z,4.20
2022-09-02T23:14:29.574Z,3.80
2022-09-02T23:17:26.465Z,4.20
2022-09-02T23:20:21.638Z,4.20
2022-09-02T23:23:28.014Z,4.60
2022-09-02T23:26:10.922Z,5.20
2022-09-02T23:29:02.644Z,6.20
2022-09-02T23:32:09.533Z,6.20
2022-09-02T23:35:03.418Z,7.90
2022-09-02T23:37:53.085Z,7.30
2022-09-02T23:40:34.406Z,6.70
2022-09-02T23:43:03.821Z,6.50
2022-09-02T23:45:34.629Z,6.20
2022-09-02T23:48:06.059Z,5.10
2022-09-02T23:50:58.356Z,5.00
2022-09-02T23:53:41.171Z,4.50
2022-09-02T23:56:36.902Z,4.50
2022-09-02T23:59:37.193Z,4.00
